createdAt,value
2023-05-14T00:00:55.581Z,4.43
2023-05-14T00:03:22.517Z,3.97
2023-05-14T00:05:49.696Z,4.35
2023-05-14T00:08:16.555Z,4.07
2023-05-14T00:10:43.437Z,4.50
2023-05-14T00:13:10.692Z,3.95
2023-05-14T00:15:37.699Z,4.80
2023-05-14T00:18:04.702Z,4.38
2023-05-14T00:20:31.519Z,4.47
2023-05-14T00:22:58.364Z,5.22
2023-05-14T00:25:25.246Z,4.95
2023-05-14T00:27:52.057Z,4.70
2023-05-14T00:30:18.998Z,4.07
2023-05-14T00:32:46.015Z,4.55
2023-05-14T00:35:12.851Z,4.30
2023-05-14T00:37:39.667Z,4.85
2023-05-14T00:40:08.635Z,4.93
2023-05-14T00:42:35.661Z,4.75
2023-05-14T00:45:02.875Z,4.38
2023-05-14T00:47:29.798Z,4.78
2023-05-14T00:49:56.626Z,4.93
2023-05-14T00:52:23.532Z,4.35
2023-05-14T00:54:50.886Z,4.95
2023-05-14T00:57:19.809Z,4.53
2023-05-14T00:59:46.699Z,4.05
2023-05-14T01:02:13.557Z,4.63
2023-05-14T01:04:41.493Z,4.68
2023-05-14T01:07:21.186Z,4.40
2023-05-14T01:10:12.902Z,4.77
2023-05-14T01:12:58.254Z,4.15
2023-05-14T01:15:30.303Z,4.55
2023-05-14T01:18:03.860Z,3.97
2023-05-14T01:20:30.818Z,4.40
2023-05-14T01:22:57.658Z,4.55
2023-05-14T01:25:26.023Z,4.07
2023-05-14T01:28:06.634Z,4.20
2023-05-14T01:33:03.582Z,3.72
2023-05-14T01:35:30.955Z,3.88
2023-05-14T01:38:01.099Z,4.15
2023-05-14T01:40:29.038Z,5.18
2023-05-14T01:42:56.808Z,4.20
2023-05-14T01:45:24.465Z,4.18
2023-05-14T01:47:51.886Z,4.18
2023-05-14T01:50:19.011Z,3.75
2023-05-14T01:52:46.025Z,4.00
2023-05-14T01:55:12.958Z,4.50
2023-05-14T01:57:39.777Z,4.13
2023-05-14T02:00:07.762Z,3.97
2023-05-14T02:02:41.038Z,4.47
2023-05-14T02:05:10.805Z,4.50
2023-05-14T02:07:38.113Z,3.70
2023-05-14T02:10:05.493Z,3.75
2023-05-14T02:12:32.277Z,4.22
2023-05-14T02:14:59.159Z,4.13
2023-05-14T02:17:27.446Z,4.38
2023-05-14T02:19:54.542Z,5.00
2023-05-14T02:22:21.398Z,3.72
2023-05-14T02:24:49.804Z,3.75
2023-05-14T02:27:18.064Z,3.65
2023-05-14T02:29:45.033Z,4.50
2023-05-14T02:32:12.002Z,4.97
2023-05-14T02:34:39.440Z,4.13
2023-05-14T02:37:06.617Z,4.70
2023-05-14T02:39:33.480Z,3.97
2023-05-14T02:42:00.338Z,4.32
2023-05-14T02:44:27.145Z,5.05
2023-05-14T02:46:53.950Z,4.63
2023-05-14T02:49:20.989Z,4.22
2023-05-14T02:51:47.767Z,4.00
2023-05-14T02:54:16.437Z,4.57
2023-05-14T02:56:43.467Z,3.88
2023-05-14T02:59:10.483Z,3.90
2023-05-14T03:01:38.004Z,5.30
2023-05-14T03:04:05.636Z,4.75
2023-05-14T03:06:32.475Z,4.32
2023-05-14T03:08:59.395Z,4.10
2023-05-14T03:11:26.363Z,4.82
2023-05-14T03:13:53.252Z,4.32
2023-05-14T03:16:20.159Z,3.78
2023-05-14T03:18:46.991Z,4.28
2023-05-14T03:21:13.912Z,4.45
2023-05-14T03:23:40.914Z,4.20
2023-05-14T03:26:08.892Z,4.20
2023-05-14T03:28:35.739Z,4.32
2023-05-14T03:31:02.653Z,4.18
2023-05-14T03:33:31.216Z,3.78
2023-05-14T03:35:58.078Z,3.88
2023-05-14T03:38:24.895Z,3.58
2023-05-14T03:40:51.959Z,3.78
2023-05-14T03:43:18.824Z,3.65
2023-05-14T03:45:46.157Z,4.18
2023-05-14T03:48:13.081Z,3.47
2023-05-14T03:50:40.242Z,3.67
2023-05-14T03:53:07.107Z,4.05
2023-05-14T03:55:33.946Z,4.78
2023-05-14T03:58:01.054Z,4.25
2023-05-14T04:00:28.387Z,4.28
2023-05-14T04:02:55.451Z,4.15
2023-05-14T04:05:23.988Z,4.53
2023-05-14T04:07:52.556Z,4.10
2023-05-14T04:10:20.585Z,4.65
2023-05-14T04:12:47.416Z,4.38
2023-05-14T04:15:14.369Z,4.28
2023-05-14T04:17:42.714Z,5.72
2023-05-14T04:20:10.150Z,3.80
2023-05-14T04:22:36.989Z,5.90
2023-05-14T04:25:03.976Z,4.40
2023-05-14T04:27:30.814Z,4.78
2023-05-14T04:29:58.206Z,4.15
2023-05-14T04:32:25.671Z,3.60
2023-05-14T04:34:52.599Z,4.35
2023-05-14T04:37:19.416Z,4.47
2023-05-14T04:39:46.339Z,3.70
2023-05-14T04:42:13.565Z,4.25
2023-05-14T04:44:40.450Z,4.97
2023-05-14T04:47:07.646Z,4.10
2023-05-14T04:49:34.569Z,4.50
2023-05-14T04:52:02.336Z,4.60
2023-05-14T04:54:29.384Z,4.03
2023-05-14T04:56:56.325Z,4.07
2023-05-14T04:59:23.134Z,5.07
2023-05-14T05:01:50.013Z,4.60
2023-05-14T05:04:16.914Z,3.92
2023-05-14T05:06:43.802Z,4.32
2023-05-14T05:09:10.682Z,3.55
2023-05-14T05:11:38.821Z,4.68
2023-05-14T05:14:05.710Z,4.10
2023-05-14T05:16:32.827Z,4.15
2023-05-14T05:18:59.862Z,4.10
2023-05-14T05:21:26.990Z,4.07
2023-05-14T05:23:53.820Z,4.50
2023-05-14T05:26:22.251Z,4.57
2023-05-14T05:28:49.113Z,4.38
2023-05-14T05:31:18.322Z,4.60
2023-05-14T05:33:46.708Z,5.10
2023-05-14T05:36:13.523Z,4.50
2023-05-14T05:38:40.355Z,4.68
2023-05-14T05:41:07.630Z,4.07
2023-05-14T05:43:34.512Z,3.63
2023-05-14T05:46:01.703Z,4.07
2023-05-14T05:48:28.596Z,4.13
2023-05-14T05:50:55.613Z,4.05
2023-05-14T05:53:22.454Z,3.38
2023-05-14T05:55:51.632Z,3.45
2023-05-14T05:58:19.250Z,3.40
2023-05-14T06:00:47.119Z,3.65
2023-05-14T06:03:14.368Z,3.92
2023-05-14T06:05:41.334Z,3.15
2023-05-14T06:08:08.296Z,3.22
2023-05-14T06:10:36.261Z,3.53
2023-05-14T06:13:03.181Z,3.05
2023-05-14T06:15:30.026Z,3.42
2023-05-14T06:17:56.995Z,3.20
2023-05-14T06:20:24.329Z,2.90
2023-05-14T06:22:51.377Z,3.75
2023-05-14T06:25:18.525Z,4.07
2023-05-14T06:27:45.313Z,2.90
2023-05-14T06:30:12.771Z,2.78
2023-05-14T06:32:39.734Z,2.88
2023-05-14T06:35:07.159Z,3.03
2023-05-14T06:37:33.968Z,2.67
2023-05-14T06:40:01.447Z,3.10
2023-05-14T06:42:28.248Z,2.90
2023-05-14T06:44:56.020Z,4.95
2023-05-14T06:47:22.898Z,3.65
2023-05-14T06:49:49.857Z,2.65
2023-05-14T06:52:16.622Z,3.17
2023-05-14T06:54:43.488Z,3.42
2023-05-14T06:57:10.494Z,2.70
2023-05-14T06:59:37.359Z,3.13
2023-05-14T07:02:04.272Z,2.53
2023-05-14T07:04:31.215Z,3.17
2023-05-14T07:06:58.079Z,3.35
2023-05-14T07:09:24.865Z,3.17
2023-05-14T07:11:51.704Z,2.97
2023-05-14T07:14:18.817Z,3.05
2023-05-14T07:16:47.055Z,3.30
2023-05-14T07:19:14.042Z,4.60
2023-05-14T07:21:40.981Z,3.00
2023-05-14T07:24:07.956Z,2.90
2023-05-14T07:26:34.884Z,3.10
2023-05-14T07:29:01.810Z,3.40
2023-05-14T07:31:28.794Z,2.78
2023-05-14T07:33:55.926Z,3.33
2023-05-14T07:36:23.418Z,2.70
2023-05-14T07:38:50.414Z,3.53
2023-05-14T07:41:17.254Z,2.72
2023-05-14T07:43:44.133Z,4.03
2023-05-14T07:46:11.100Z,3.10
2023-05-14T07:48:38.070Z,4.13
2023-05-14T07:51:05.005Z,3.60
2023-05-14T07:53:31.882Z,3.08
2023-05-14T07:56:00.134Z,3.13
2023-05-14T07:58:28.152Z,3.83
2023-05-14T08:00:55.164Z,2.90
2023-05-14T08:03:22.160Z,3.15
2023-05-14T08:05:49.009Z,3.17
2023-05-14T08:08:16.236Z,3.30
2023-05-14T08:10:43.149Z,4.00
2023-05-14T08:13:10.054Z,3.17
2023-05-14T08:15:37.197Z,2.88
2023-05-14T08:18:04.138Z,3.75
2023-05-14T08:20:31.224Z,3.20
2023-05-14T08:22:58.250Z,3.33
2023-05-14T08:25:25.318Z,2.97
2023-05-14T08:27:53.674Z,2.70
2023-05-14T08:30:21.871Z,2.60
2023-05-14T08:32:48.888Z,2.83
2023-05-14T08:35:16.230Z,2.35
2023-05-14T08:37:43.303Z,2.97
2023-05-14T08:40:10.744Z,2.88
2023-05-14T08:42:41.515Z,2.75
2023-05-14T08:45:16.461Z,2.83
2023-05-14T08:47:50.473Z,3.05
2023-05-14T08:50:21.893Z,3.97
2023-05-14T08:52:50.242Z,3.10
2023-05-14T08:55:17.051Z,2.25
2023-05-14T08:57:43.915Z,2.75
2023-05-14T09:00:12.153Z,2.38
2023-05-14T09:02:40.922Z,3.22
2023-05-14T09:05:09.321Z,3.15
2023-05-14T09:07:36.641Z,2.47
2023-05-14T09:10:04.579Z,2.20
2023-05-14T09:12:31.558Z,2.35
2023-05-14T09:14:58.437Z,3.47
2023-05-14T09:17:27.753Z,2.25
2023-05-14T09:19:54.738Z,2.90
2023-05-14T09:22:21.745Z,2.63
2023-05-14T09:25:03.488Z,2.35
2023-05-14T09:27:31.850Z,2.70
2023-05-14T09:30:06.040Z,2.13
2023-05-14T09:32:37.245Z,2.40
2023-05-14T09:35:21.498Z,2.00
2023-05-14T09:37:51.071Z,4.93
2023-05-14T09:40:19.790Z,2.45
2023-05-14T09:42:49.056Z,2.78
2023-05-14T09:45:16.818Z,2.50
2023-05-14T09:47:45.167Z,2.30
2023-05-14T09:50:12.655Z,2.55
2023-05-14T09:52:39.930Z,2.60
2023-05-14T09:55:08.032Z,3.33
2023-05-14T09:57:35.457Z,2.40
2023-05-14T10:00:02.359Z,2.58
2023-05-14T10:02:37.978Z,2.47
2023-05-14T10:05:06.893Z,4.10
2023-05-14T10:07:47.871Z,2.75
2023-05-14T10:10:18.579Z,2.70
2023-05-14T10:12:55.169Z,2.75
2023-05-14T10:15:49.891Z,3.20
2023-05-14T10:18:19.697Z,3.88
2023-05-14T10:21:00.351Z,2.45
2023-05-14T10:23:27.625Z,2.40
2023-05-14T10:25:54.830Z,2.95
2023-05-14T10:28:21.854Z,2.30
2023-05-14T10:30:50.022Z,2.50
2023-05-14T10:33:18.557Z,2.72
2023-05-14T10:35:59.838Z,2.47
2023-05-14T10:38:35.113Z,2.83
2023-05-14T10:41:12.317Z,2.63
2023-05-14T10:43:40.470Z,2.92
2023-05-14T10:46:08.864Z,2.50
2023-05-14T10:48:37.766Z,2.90
2023-05-14T10:51:08.304Z,4.97
2023-05-14T10:53:38.563Z,2.72
2023-05-14T10:56:13.436Z,2.50
2023-05-14T10:58:43.066Z,3.65
2023-05-14T11:01:11.979Z,3.13
2023-05-14T11:03:43.586Z,2.15
2023-05-14T11:06:11.811Z,2.53
2023-05-14T11:08:39.013Z,2.80
2023-05-14T11:11:06.899Z,3.00
2023-05-14T11:13:34.701Z,2.88
2023-05-14T11:16:12.003Z,2.83
2023-05-14T11:18:48.410Z,4.20
2023-05-14T11:21:17.500Z,2.47
2023-05-14T11:23:46.891Z,3.38
2023-05-14T11:26:13.787Z,2.40
2023-05-14T11:28:41.005Z,3.30
2023-05-14T11:31:08.072Z,2.70
2023-05-14T11:33:36.144Z,3.17
2023-05-14T11:36:03.544Z,3.30
2023-05-14T11:38:30.433Z,2.83
2023-05-14T11:40:58.924Z,2.50
2023-05-14T11:43:29.131Z,3.72
2023-05-14T11:48:24.007Z,5.38
2023-05-14T11:50:52.538Z,3.33
2023-05-14T11:53:20.836Z,3.38
2023-05-14T11:55:48.046Z,3.00
2023-05-14T11:58:15.866Z,2.97
2023-05-14T12:00:45.576Z,2.83
2023-05-14T12:03:12.767Z,2.67
2023-05-14T12:05:40.201Z,2.72
2023-05-14T12:08:37.644Z,2.72
2023-05-14T12:11:04.539Z,2.67
2023-05-14T12:13:32.383Z,2.13
2023-05-14T12:16:05.486Z,2.65
2023-05-14T12:18:32.665Z,2.30
2023-05-14T12:21:04.308Z,3.53
2023-05-14T12:23:32.386Z,2.88
2023-05-14T12:26:07.464Z,2.85
2023-05-14T12:28:37.972Z,2.75
2023-05-14T12:31:05.740Z,3.13
2023-05-14T12:33:32.624Z,2.63
2023-05-14T12:36:07.382Z,2.85
2023-05-14T12:38:41.628Z,2.70
2023-05-14T12:41:08.440Z,2.95
2023-05-14T12:43:35.357Z,2.67
2023-05-14T12:46:02.263Z,4.47
2023-05-14T12:48:29.125Z,3.10
2023-05-14T12:50:56.067Z,2.67
2023-05-14T12:53:22.884Z,2.70
2023-05-14T12:55:49.738Z,3.05
2023-05-14T12:58:16.562Z,2.50
2023-05-14T13:00:43.429Z,3.38
2023-05-14T13:03:10.293Z,3.03
2023-05-14T13:05:37.782Z,2.30
2023-05-14T13:08:04.681Z,3.17
2023-05-14T13:10:31.566Z,2.63
2023-05-14T13:12:58.436Z,2.70
2023-05-14T13:15:25.483Z,2.80
2023-05-14T13:17:52.712Z,2.83
2023-05-14T13:20:19.670Z,4.68
2023-05-14T13:22:46.582Z,2.88
2023-05-14T13:25:13.486Z,2.97
2023-05-14T13:27:40.306Z,2.60
2023-05-14T13:30:07.774Z,3.03
2023-05-14T13:32:34.742Z,3.75
2023-05-14T13:35:01.660Z,3.17
2023-05-14T13:37:28.672Z,3.00
2023-05-14T13:39:55.537Z,2.50
2023-05-14T13:42:23.608Z,3.50
2023-05-14T13:44:50.882Z,2.95
2023-05-14T13:47:17.694Z,3.65
2023-05-14T13:49:44.584Z,2.22
2023-05-14T13:52:11.501Z,2.60
2023-05-14T13:54:38.310Z,2.90
2023-05-14T13:57:05.599Z,2.60
2023-05-14T13:59:32.528Z,2.67
2023-05-14T14:01:59.469Z,3.08
2023-05-14T14:04:29.074Z,2.85
2023-05-14T14:06:56.275Z,2.50
2023-05-14T14:09:23.291Z,3.30
2023-05-14T14:11:50.708Z,3.72
2023-05-14T14:14:18.200Z,3.22
2023-05-14T14:16:45.093Z,3.42
2023-05-14T14:19:12.065Z,2.65
2023-05-14T14:21:42.699Z,3.65
2023-05-14T14:24:09.602Z,3.08
2023-05-14T14:26:36.476Z,3.20
2023-05-14T14:29:03.628Z,3.15
2023-05-14T14:31:30.751Z,2.95
2023-05-14T14:33:57.637Z,3.08
2023-05-14T14:36:24.536Z,3.15
2023-05-14T14:38:51.510Z,2.78
2023-05-14T14:41:18.373Z,3.58
2023-05-14T14:43:45.443Z,2.50
2023-05-14T14:46:12.428Z,3.03
2023-05-14T14:48:39.742Z,2.60
2023-05-14T14:51:07.959Z,2.53
2023-05-14T14:53:35.861Z,2.45
2023-05-14T14:56:03.297Z,3.33
2023-05-14T14:58:31.381Z,2.67
2023-05-14T15:00:58.733Z,3.25
2023-05-14T15:03:26.313Z,2.33
2023-05-14T15:05:53.877Z,3.08
2023-05-14T15:08:24.651Z,3.00
2023-05-14T15:10:51.603Z,3.00
2023-05-14T15:13:19.092Z,3.08
2023-05-14T15:15:45.893Z,2.63
2023-05-14T15:18:12.928Z,2.90
2023-05-14T15:20:40.115Z,3.25
2023-05-14T15:23:07.115Z,2.33
2023-05-14T15:25:33.944Z,2.72
2023-05-14T15:28:00.874Z,5.07
2023-05-14T15:30:27.839Z,2.90
2023-05-14T15:32:55.778Z,3.63
2023-05-14T15:35:23.100Z,2.92
2023-05-14T15:37:50.294Z,2.75
2023-05-14T15:40:18.909Z,3.00
2023-05-14T15:42:46.884Z,2.33
2023-05-14T15:45:14.195Z,3.00
2023-05-14T15:47:41.789Z,2.60
2023-05-14T15:50:09.161Z,3.13
2023-05-14T15:52:36.530Z,3.30
2023-05-14T15:55:05.668Z,2.33
2023-05-14T15:57:32.654Z,3.17
2023-05-14T15:59:59.534Z,3.28
2023-05-14T16:02:30.298Z,3.03
2023-05-14T16:04:57.377Z,4.97
2023-05-14T16:07:24.289Z,2.90
2023-05-14T16:09:51.768Z,2.60
2023-05-14T16:12:18.766Z,3.35
2023-05-14T16:14:45.638Z,2.20
2023-05-14T16:17:12.657Z,2.88
2023-05-14T16:19:39.980Z,2.28
2023-05-14T16:22:06.803Z,2.65
2023-05-14T16:24:33.646Z,2.38
2023-05-14T16:27:00.813Z,3.45
2023-05-14T16:29:27.897Z,2.28
2023-05-14T16:31:54.928Z,3.65
2023-05-14T16:34:21.830Z,2.97
2023-05-14T16:36:48.756Z,2.95
2023-05-14T16:39:16.574Z,2.58
2023-05-14T16:41:43.385Z,2.67
2023-05-14T16:44:10.203Z,2.80
2023-05-14T16:46:37.102Z,2.63
2023-05-14T16:49:03.919Z,2.28
2023-05-14T16:51:30.808Z,2.45
2023-05-14T16:53:57.587Z,2.33
2023-05-14T16:56:24.484Z,2.95
2023-05-14T16:58:51.382Z,2.80
2023-05-14T17:01:18.358Z,2.80
2023-05-14T17:03:45.783Z,3.35
2023-05-14T17:06:12.702Z,2.55
2023-05-14T17:08:39.711Z,3.45
2023-05-14T17:11:06.695Z,3.13
2023-05-14T17:13:34.082Z,3.80
2023-05-14T17:16:01.241Z,3.63
2023-05-14T17:18:28.558Z,2.80
2023-05-14T17:20:55.561Z,2.80
2023-05-14T17:23:22.468Z,3.33
2023-05-14T17:25:49.521Z,3.03
2023-05-14T17:28:16.473Z,3.03
2023-05-14T17:30:43.813Z,3.08
2023-05-14T17:33:11.560Z,3.63
2023-05-14T17:35:38.588Z,3.50
2023-05-14T17:38:05.621Z,2.83
2023-05-14T17:40:33.457Z,2.78
2023-05-14T17:43:00.511Z,3.45
2023-05-14T17:45:28.596Z,3.05
2023-05-14T17:47:57.567Z,3.05
2023-05-14T17:50:24.448Z,4.40
2023-05-14T17:52:51.297Z,3.22
2023-05-14T17:55:19.177Z,2.78
2023-05-14T17:57:46.540Z,3.33
2023-05-14T18:00:13.968Z,4.28
2023-05-14T18:02:41.777Z,3.30
2023-05-14T18:05:09.089Z,3.20
2023-05-14T18:07:36.679Z,3.28
2023-05-14T18:10:04.416Z,3.67
2023-05-14T18:12:31.239Z,3.40
2023-05-14T18:14:58.070Z,3.22
2023-05-14T18:17:25.015Z,3.10
2023-05-14T18:19:51.907Z,3.22
2023-05-14T18:22:20.378Z,3.10
2023-05-14T18:24:47.357Z,3.65
2023-05-14T18:27:14.215Z,3.28
2023-05-14T18:29:42.682Z,2.88
2023-05-14T18:32:09.543Z,2.65
2023-05-14T18:34:36.493Z,3.58
2023-05-14T18:37:03.293Z,3.78
2023-05-14T18:39:30.123Z,3.67
2023-05-14T18:41:57.326Z,4.53
2023-05-14T18:44:24.210Z,4.38
2023-05-14T18:46:51.300Z,4.20
2023-05-14T18:49:18.118Z,3.65
2023-05-14T18:51:45.024Z,3.33
2023-05-14T18:54:11.827Z,3.90
2023-05-14T18:56:41.243Z,3.20
2023-05-14T18:59:09.262Z,3.37
2023-05-14T19:01:36.459Z,4.60
2023-05-14T19:04:05.455Z,3.35
2023-05-14T19:06:32.796Z,4.65
2023-05-14T19:08:59.709Z,3.75
2023-05-14T19:11:26.540Z,3.15
2023-05-14T19:13:53.414Z,3.22
2023-05-14T19:16:51.964Z,3.95
2023-05-14T19:19:19.037Z,3.60
2023-05-14T19:21:46.358Z,4.65
2023-05-14T19:24:13.237Z,3.42
2023-05-14T19:26:40.063Z,3.40
2023-05-14T19:29:06.944Z,4.30
2023-05-14T19:31:33.791Z,3.75
2023-05-14T19:34:00.670Z,3.47
2023-05-14T19:36:28.352Z,4.55
2023-05-14T19:38:55.268Z,5.00
2023-05-14T19:41:23.026Z,3.70
2023-05-14T19:43:49.860Z,3.88
2023-05-14T19:46:17.088Z,3.88
2023-05-14T19:48:43.991Z,4.80
2023-05-14T19:51:11.185Z,4.20
2023-05-14T19:53:38.048Z,4.32
2023-05-14T19:56:05.249Z,4.03
2023-05-14T19:58:32.133Z,3.58
2023-05-14T20:01:00.744Z,4.22
2023-05-14T20:03:27.811Z,4.47
2023-05-14T20:05:55.859Z,3.63
2023-05-14T20:08:22.677Z,5.53
2023-05-14T20:10:49.565Z,4.30
2023-05-14T20:13:16.452Z,3.85
2023-05-14T20:15:43.391Z,4.60
2023-05-14T20:18:10.281Z,4.20
2023-05-14T20:20:37.436Z,3.88
2023-05-14T20:23:04.239Z,4.88
2023-05-14T20:25:32.779Z,4.38
2023-05-14T20:28:02.415Z,4.25
2023-05-14T20:30:29.358Z,4.53
2023-05-14T20:32:56.510Z,4.78
2023-05-14T20:35:23.569Z,3.90
2023-05-14T20:37:50.600Z,4.00
2023-05-14T20:40:17.721Z,3.45
2023-05-14T20:42:44.652Z,4.22
2023-05-14T20:45:11.663Z,4.43
2023-05-14T20:50:27.811Z,4.55
2023-05-14T20:52:55.636Z,3.83
2023-05-14T20:55:23.050Z,3.97
2023-05-14T20:57:50.572Z,4.97
2023-05-14T21:00:17.958Z,5.45
2023-05-14T21:02:44.925Z,4.78
2023-05-14T21:05:11.869Z,4.70
2023-05-14T21:07:39.383Z,4.57
2023-05-14T21:10:08.563Z,5.18
2023-05-14T21:12:35.490Z,4.43
2023-05-14T21:15:02.672Z,5.15
2023-05-14T21:17:29.892Z,5.85
2023-05-14T21:19:56.674Z,5.28
2023-05-14T21:22:23.601Z,4.90
2023-05-14T21:24:51.344Z,4.43
2023-05-14T21:27:18.193Z,4.57
2023-05-14T21:29:46.416Z,4.32
2023-05-14T21:32:13.337Z,4.80
2023-05-14T21:34:40.298Z,4.40
2023-05-14T21:37:07.135Z,4.72
2023-05-14T21:39:34.049Z,4.65
2023-05-14T21:42:00.869Z,5.00
2023-05-14T21:44:27.688Z,4.85
2023-05-14T21:46:54.780Z,4.65
2023-05-14T21:49:21.636Z,4.88
2023-05-14T21:51:52.940Z,4.72
2023-05-14T21:54:20.898Z,5.20
2023-05-14T21:56:48.074Z,4.90
2023-05-14T21:59:14.992Z,4.60
2023-05-14T22:02:04.810Z,5.30
2023-05-14T22:04:28.721Z,5.32
2023-05-14T22:06:56.022Z,5.38
2023-05-14T22:09:22.832Z,5.40
2023-05-14T22:11:49.645Z,4.88
2023-05-14T22:14:16.494Z,4.85
2023-05-14T22:16:43.512Z,7.13
2023-05-14T22:19:10.419Z,5.68
2023-05-14T22:21:37.247Z,5.30
2023-05-14T22:24:04.227Z,5.82
2023-05-14T22:26:31.008Z,5.78
2023-05-14T22:28:57.967Z,5.45
2023-05-14T22:31:24.857Z,5.30
2023-05-14T22:33:51.687Z,5.30
2023-05-14T22:36:18.489Z,5.47
2023-05-14T22:38:45.304Z,6.03
2023-05-14T22:41:12.722Z,6.50
2023-05-14T22:43:39.681Z,5.32
2023-05-14T22:46:06.772Z,5.00
2023-05-14T22:48:33.642Z,5.00
2023-05-14T22:51:00.484Z,5.32
2023-05-14T22:53:27.385Z,5.85
2023-05-14T22:55:54.289Z,5.05
2023-05-14T22:58:21.084Z,4.45
2023-05-14T23:00:47.968Z,5.20
2023-05-14T23:03:14.759Z,6.00
2023-05-14T23:05:41.587Z,5.68
2023-05-14T23:08:08.399Z,5.68
2023-05-14T23:10:38.181Z,4.80
2023-05-14T23:13:05.103Z,4.88
2023-05-14T23:15:32.716Z,5.32
2023-05-14T23:17:59.987Z,5.82
2023-05-14T23:20:26.825Z,5.35
2023-05-14T23:22:54.128Z,4.88
2023-05-14T23:25:21.038Z,5.32
2023-05-14T23:27:48.237Z,5.72
2023-05-14T23:30:15.162Z,4.75
2023-05-14T23:32:42.019Z,5.93
2023-05-14T23:35:09.432Z,5.10
2023-05-14T23:37:41.610Z,5.43
2023-05-14T23:40:09.581Z,4.57
2023-05-14T23:42:36.417Z,5.65
2023-05-14T23:45:03.608Z,5.28
2023-05-14T23:47:30.434Z,5.78
2023-05-14T23:49:57.265Z,5.65
2023-05-14T23:52:24.060Z,4.88
2023-05-14T23:54:50.860Z,5.45
2023-05-14T23:57:17.717Z,4.57
2023-05-14T23:59:44.525Z,4.63
